Las Vegas Municipal Airport
KLVS : now visible

Airfield :











YOU CAN JOIN US ON...

 
LOGIN :

Register | Disclaimer

   EN    FR    IT 

 









Legend :    VFR   Marginal VFR   IFR   Intensive IFR   Very Intensive IFR
Visi :
Ceiling :
>= 8 km
>= 3000ft
5 to 8 km
1000 to 3000 ft
1500m to 5 km
500 to 1000 ft
800 to 1500m
200 to 500 ft
< 800m
< 200 ft
Symbols :   Thunderstorms  Fog  Heavy snow  Heavy precipitations  Wind > 20 kt






- Airport Elevation : 6877 ft


KLVS - Las Vegas Municipal

CURRENT METAR :
  • 020653Z AUTO 22018KT 10SM CLR 06/M10 A3002 RMK AO2 SLP095 T00611100 401781006

EXPIRED METARs :
  • 020553Z AUTO 22015KT 10SM CLR 07/M11 A3003 RMK AO2 SLP102 T00721111 10144 20067 58004
  • 020453Z AUTO 25013KT 10SM CLR 10/M12 A3005 RMK AO2 SLP104 T01001117
  • 012053Z AUTO 27017G28KT 10SM CLR 17/M13 A2999 RMK AO2 PK WND 27035/2029 SLP087 T01721133 58014
  • 020353Z AUTO 23008G16KT 10SM CLR 11/M12 A3005 RMK AO2 SLP106 T01061122
  • 020253Z AUTO 22007KT 200V270 10SM CLR 11/M13 A3005 RMK AO2 PK WND 21027/0233 SLP113 T01111128 53016

TAF KLVS
Valid from the 02 at 06:00 until the 03 at 06:00 UTC


020520Z 0206/0306 23012KT P6SM SKC
FM021500 23015G23KT P6SM FEW200 WS020/27045KT
FM021900 24029G41KT P6SM FEW200
FM030300 23020G30KT P6SM SCT200
KZAB FIR / North America



MET'MAP, your aeronautical weather chart ! - Copyright ORBIFLY December 2007 - Disclaimer

ORBIFLY MET'MAP TEAM :

Programming & Development : Alexandra Zaïnal
Original concept : Baudouin d'Aumeries
Technical & hardware support : Manuel Goepfert
Assistance : Marc-Olivier Méhu




SOURCES & CREDITS :

   NOAA       Earth
Advisory